Other Surface Observations
Issued by NWS Great Falls, MT

Home | Current Version | Previous Version | Text Only | Print | Product List | Glossary On
Versions: 1 2 3 4 5 6 7 8 9 10 11 12 13 14 15 16 17 18 19 20 21 22 23 24 25 26 27 28 29 30 31 32 33 34 35 36 37 38 39 40 41 42 43 44 45 46 47 48 49 50
000
SXUS55 KTFX 270814
OSOTFX
AREA AWOS OBSERVATIONS
NATIONAL WEATHER SERVICE GREAT FALLS MT
0214 AM MDT WED JUL 27 2016

METAR KPWD 270815Z AUTO 03003KT 4SM 16/12 A3010 RMK PLENTYWOOD
METAR KPO1 270815Z AUTO 24004KT 10SM 17/14 A3012 RMK POPLAR
METAR K1S3 270815Z AUTO 36012G16KT 3SM 22/14 A3007 RMK FORSYTH
METAR KS71 270800Z AUTO 00000KT 10SM 16/15 A3009 RMK CHINOOK
METAR K38S 270815Z AUTO 00000KT 10SM 13/09 A3020 RMK DEER LODGE
METAR K3U3 270815Z AUTO 17003KT 1 1/4SM 12/07 A3019 RMK ANACONDA
METAR K6S5 270815Z AUTO 00000KT 10SM 17/09 A3010 RMK HAMILTON
METAR KS59 270815Z AUTO 00000KT 10SM 17/11 A3008 RMK LIBBY
METAR K88M 270815Z AUTO 00000KT 10SM 14/11 A3009 RMK EUREKA



USA.gov is the U.S. government's official web portal to all federal, state and local government web resources and services.